createdAt,value
2019-02-10T00:01:16.935Z,2.29
2019-02-10T00:03:48.258Z,2.26
2019-02-10T00:06:24.462Z,2.25
2019-02-10T00:08:51.456Z,2.21
2019-02-10T00:11:23.328Z,2.33
2019-02-10T00:13:54.181Z,2.38
2019-02-10T00:16:24.952Z,2.44
2019-02-10T00:18:55.618Z,2.53
2019-02-10T00:21:26.380Z,2.57
2019-02-10T00:23:57.168Z,2.65
2019-02-10T00:26:30.445Z,2.66
2019-02-10T00:29:01.955Z,2.62
2019-02-10T00:31:32.680Z,2.62
2019-02-10T00:34:03.900Z,2.69
2019-02-10T00:36:34.954Z,2.77
2019-02-10T00:39:09.790Z,2.72
2019-02-10T00:41:40.583Z,2.74
2019-02-10T00:44:11.668Z,2.73
2019-02-10T00:46:42.583Z,2.77
2019-02-10T00:49:13.682Z,2.82
2019-02-10T00:51:44.310Z,2.88
2019-02-10T00:54:15.232Z,2.93
2019-02-10T00:56:47.174Z,2.98
2019-02-10T00:59:17.846Z,2.88
2019-02-10T01:01:48.529Z,2.81
2019-02-10T01:04:19.179Z,2.79
2019-02-10T01:06:50.089Z,2.78
2019-02-10T01:09:20.710Z,2.73
2019-02-10T01:11:51.392Z,2.77
2019-02-10T01:14:22.398Z,2.79
2019-02-10T01:16:53.060Z,2.80
2019-02-10T01:19:24.819Z,2.74
2019-02-10T01:21:55.464Z,2.73
2019-02-10T01:24:26.094Z,2.80
2019-02-10T01:26:56.825Z,2.83
2019-02-10T01:29:27.569Z,2.88
2019-02-10T01:31:58.979Z,2.85
2019-02-10T01:34:29.588Z,2.83
2019-02-10T01:37:00.561Z,2.85
2019-02-10T01:39:31.365Z,2.82
2019-02-10T01:42:02.695Z,2.83
2019-02-10T01:44:33.617Z,2.84
2019-02-10T01:47:04.398Z,2.77
2019-02-10T01:49:35.315Z,2.79
2019-02-10T01:52:07.379Z,2.80
2019-02-10T01:54:38.009Z,2.74
2019-02-10T01:57:11.352Z,2.72
2019-02-10T01:59:42.277Z,2.77
2019-02-10T02:02:13.187Z,2.67
2019-02-10T02:04:44.268Z,2.60
2019-02-10T02:07:16.333Z,2.56
2019-02-10T02:09:48.100Z,2.45
2019-02-10T02:12:18.876Z,2.35
2019-02-10T02:14:49.639Z,2.27
2019-02-10T02:17:20.323Z,2.20
2019-02-10T02:19:50.839Z,2.09
2019-02-10T02:22:21.461Z,1.97
2019-02-10T02:24:52.242Z,1.81
2019-02-10T02:27:23.559Z,1.62
2019-02-10T02:29:54.299Z,1.46
2019-02-10T02:32:26.397Z,1.36
2019-02-10T02:34:57.086Z,1.32
2019-02-10T02:37:28.409Z,1.30
2019-02-10T02:40:06.075Z,1.34
2019-02-10T02:42:37.038Z,1.52
2019-02-10T02:45:08.997Z,1.64
2019-02-10T02:47:40.351Z,1.76
2019-02-10T02:50:12.309Z,1.86
2019-02-10T02:52:43.322Z,1.89
2019-02-10T02:55:14.096Z,1.93
2019-02-10T02:57:47.622Z,2.02
2019-02-10T03:00:18.314Z,2.06
2019-02-10T03:02:49.424Z,2.10
2019-02-10T03:05:20.486Z,2.15
2019-02-10T03:07:51.037Z,2.13
2019-02-10T03:10:21.589Z,2.04
2019-02-10T03:12:52.958Z,1.94
2019-02-10T03:15:23.714Z,1.86
2019-02-10T03:17:54.730Z,1.75
2019-02-10T03:20:25.440Z,1.67
2019-02-10T03:22:56.507Z,1.64
2019-02-10T03:25:27.903Z,1.56
2019-02-10T03:27:58.739Z,1.50
2019-02-10T03:30:31.099Z,1.45
2019-02-10T03:33:02.259Z,1.44
2019-02-10T03:35:33.327Z,1.31
2019-02-10T03:38:03.958Z,1.27
2019-02-10T03:40:34.846Z,1.26
2019-02-10T03:43:05.919Z,1.22
2019-02-10T03:45:37.065Z,1.16
2019-02-10T03:48:07.604Z,1.14
2019-02-10T03:50:38.495Z,1.14
2019-02-10T03:53:09.217Z,1.28
2019-02-10T03:55:40.047Z,1.30
2019-02-10T03:58:12.492Z,1.34
2019-02-10T04:00:43.368Z,1.34
2019-02-10T04:03:14.071Z,1.44
2019-02-10T04:05:45.529Z,1.47
2019-02-10T04:08:16.335Z,1.49
2019-02-10T04:10:48.549Z,1.50
2019-02-10T04:13:19.283Z,1.44
2019-02-10T04:15:50.141Z,1.44
2019-02-10T04:18:21.180Z,1.47
2019-02-10T04:20:51.619Z,1.46
2019-02-10T04:23:22.461Z,1.49
2019-02-10T04:25:56.469Z,1.41
2019-02-10T04:28:27.421Z,1.40
2019-02-10T04:30:58.364Z,1.37
2019-02-10T04:33:29.125Z,1.38
2019-02-10T04:36:00.216Z,1.33
2019-02-10T04:38:31.276Z,1.30
2019-02-10T04:41:02.441Z,1.14
2019-02-10T04:43:33.429Z,1.14
2019-02-10T04:46:04.324Z,1.08
2019-02-10T04:48:35.373Z,1.13
2019-02-10T04:51:07.914Z,1.15
2019-02-10T04:53:38.845Z,1.19
2019-02-10T04:56:20.030Z,1.21
2019-02-10T04:58:51.888Z,1.17
2019-02-10T05:01:22.521Z,1.16
2019-02-10T05:03:53.614Z,1.22
2019-02-10T05:06:25.124Z,1.27
2019-02-10T05:08:56.292Z,1.33
2019-02-10T05:11:27.315Z,1.41
2019-02-10T05:13:57.967Z,1.47
2019-02-10T05:16:28.792Z,1.61
2019-02-10T05:18:59.716Z,1.80
2019-02-10T05:21:30.767Z,1.99
2019-02-10T05:24:03.580Z,2.15
2019-02-10T05:26:34.223Z,2.28
2019-02-10T05:29:06.179Z,2.29
2019-02-10T05:31:37.160Z,2.34
2019-02-10T05:34:09.342Z,2.30
2019-02-10T05:36:39.935Z,2.32
2019-02-10T05:39:10.537Z,2.41
2019-02-10T05:41:41.291Z,2.49
2019-02-10T05:44:12.031Z,2.58
2019-02-10T05:46:42.584Z,2.73
2019-02-10T05:49:13.248Z,2.87
2019-02-10T05:51:43.917Z,3.06
2019-02-10T05:54:14.522Z,3.32
2019-02-10T05:56:45.509Z,3.63
2019-02-10T05:59:17.624Z,4.01
2019-02-10T06:02:27.682Z,4.36
2019-02-10T06:05:00.651Z,4.67
2019-02-10T06:07:32.865Z,4.99
2019-02-10T06:10:04.074Z,5.25
2019-02-10T06:12:35.382Z,5.54
2019-02-10T06:15:06.746Z,5.70
2019-02-10T06:17:37.761Z,5.73
2019-02-10T06:20:09.077Z,5.72
2019-02-10T06:22:39.889Z,5.64
2019-02-10T06:25:10.902Z,5.51
2019-02-10T06:27:41.637Z,5.36
2019-02-10T06:30:12.789Z,5.27
2019-02-10T06:32:43.338Z,5.18
2019-02-10T06:35:14.408Z,5.16
2019-02-10T06:37:45.664Z,5.11
2019-02-10T06:40:16.605Z,5.07
2019-02-10T06:42:47.797Z,5.03
2019-02-10T06:45:18.419Z,4.93
2019-02-10T06:47:49.595Z,4.90
2019-02-10T06:50:20.206Z,4.70
2019-02-10T06:52:50.827Z,4.67
2019-02-10T06:55:22.982Z,4.75
2019-02-10T06:57:53.463Z,4.82
2019-02-10T07:00:42.444Z,4.77
2019-02-10T07:03:46.156Z,4.67
2019-02-10T07:06:17.110Z,4.83
2019-02-10T07:08:48.316Z,4.97
2019-02-10T07:11:19.421Z,5.00
2019-02-10T07:13:52.720Z,5.04
2019-02-10T07:17:00.379Z,5.09
2019-02-10T07:20:13.588Z,5.17
2019-02-10T07:23:22.028Z,5.28
2019-02-10T07:26:01.469Z,5.29
2019-02-10T07:29:08.665Z,5.31
2019-02-10T07:31:54.059Z,5.48
2019-02-10T07:35:09.746Z,5.48
2019-02-10T07:38:07.801Z,5.36
2019-02-10T07:41:40.674Z,5.65
2019-02-10T07:44:45.880Z,5.66
2019-02-10T07:48:15.654Z,5.62
2019-02-10T07:51:39.337Z,5.87
2019-02-10T07:54:31.028Z,6.10
2019-02-10T07:57:48.407Z,5.83
2019-02-10T08:00:54.827Z,5.97
2019-02-10T08:04:00.622Z,6.20
2019-02-10T08:06:56.816Z,6.44
2019-02-10T08:09:39.206Z,6.53
2019-02-10T08:12:55.933Z,6.64
2019-02-10T08:16:10.948Z,6.87
2019-02-10T08:19:15.880Z,6.93
2019-02-10T08:22:36.291Z,7.03
2019-02-10T08:25:40.717Z,7.23
2019-02-10T08:28:25.115Z,7.33
2019-02-10T08:31:41.167Z,7.42
2019-02-10T08:34:28.209Z,7.45
2019-02-10T08:37:36.675Z,7.58
2019-02-10T08:40:53.648Z,7.66
2019-02-10T08:43:53.553Z,7.71
2019-02-10T08:46:56.115Z,7.73
2019-02-10T08:50:04.000Z,7.76
2019-02-10T08:52:51.773Z,7.76
2019-02-10T08:55:17.799Z,7.72
2019-02-10T08:57:48.525Z,7.62
2019-02-10T09:00:20.219Z,7.63
2019-02-10T09:02:51.657Z,7.70
2019-02-10T09:05:22.427Z,7.64
2019-02-10T09:07:53.157Z,7.62
2019-02-10T09:10:24.074Z,7.53
2019-02-10T09:12:54.978Z,7.55
2019-02-10T09:15:27.484Z,7.64
2019-02-10T09:17:58.119Z,7.70
2019-02-10T09:20:28.929Z,7.62
2019-02-10T09:22:59.897Z,7.69
2019-02-10T09:25:30.798Z,7.71
2019-02-10T09:28:01.805Z,7.76
2019-02-10T09:30:32.752Z,7.72
2019-02-10T09:33:03.767Z,7.74
2019-02-10T09:35:34.608Z,7.66
2019-02-10T09:38:05.552Z,7.68
2019-02-10T09:40:36.486Z,7.71
2019-02-10T09:43:07.515Z,7.71
2019-02-10T09:45:38.296Z,7.69
2019-02-10T09:48:10.031Z,7.60
2019-02-10T09:50:41.080Z,7.80
2019-02-10T09:53:12.401Z,7.90
2019-02-10T09:55:44.117Z,7.96
2019-02-10T09:58:15.219Z,8.03
2019-02-10T10:00:45.942Z,8.01
2019-02-10T10:03:18.108Z,7.95
2019-02-10T10:05:48.775Z,8.02
2019-02-10T10:08:21.184Z,8.05
2019-02-10T10:10:53.366Z,8.04
2019-02-10T10:13:24.089Z,8.06
2019-02-10T10:15:54.752Z,8.09
2019-02-10T10:18:25.404Z,8.20
2019-02-10T10:21:01.511Z,8.29
2019-02-10T10:23:32.426Z,8.27
2019-02-10T10:26:03.432Z,8.35
2019-02-10T10:28:34.684Z,8.32
2019-02-10T10:31:07.308Z,8.39
2019-02-10T10:33:38.076Z,8.35
2019-02-10T10:36:10.689Z,8.33
2019-02-10T10:38:43.155Z,8.26
2019-02-10T10:41:13.894Z,8.27
2019-02-10T10:43:44.850Z,8.38
2019-02-10T10:46:15.975Z,8.34
2019-02-10T10:48:48.395Z,8.38
2019-02-10T10:51:19.195Z,8.36
2019-02-10T10:53:49.774Z,8.36
2019-02-10T10:56:21.651Z,8.44
2019-02-10T10:58:52.760Z,8.55
2019-02-10T11:01:25.289Z,8.59
2019-02-10T11:03:58.486Z,8.72
2019-02-10T11:06:30.094Z,8.67
2019-02-10T11:09:02.090Z,8.67
2019-02-10T11:11:33.758Z,8.67
2019-02-10T11:14:04.865Z,8.68
2019-02-10T11:16:38.668Z,8.57
2019-02-10T11:19:09.860Z,8.50
2019-02-10T11:21:41.007Z,8.52
2019-02-10T11:24:11.693Z,8.59
2019-02-10T11:26:42.792Z,8.56
2019-02-10T11:29:14.784Z,8.62
2019-02-10T11:31:45.473Z,8.47
2019-02-10T11:34:16.542Z,8.48
2019-02-10T11:36:46.840Z,8.46
2019-02-10T11:39:17.762Z,8.16
2019-02-10T11:41:49.926Z,8.07
2019-02-10T11:44:20.846Z,8.15
2019-02-10T11:46:53.642Z,8.09
2019-02-10T11:49:27.899Z,7.83
2019-02-10T11:51:58.959Z,7.86
2019-02-10T11:54:29.773Z,7.91
2019-02-10T11:57:01.206Z,7.87
2019-02-10T11:59:32.542Z,7.59
2019-02-10T12:02:06.241Z,7.49
2019-02-10T12:04:38.192Z,7.41
2019-02-10T12:07:09.911Z,7.29
2019-02-10T12:09:41.481Z,7.46
2019-02-10T12:12:12.830Z,7.44
2019-02-10T12:14:43.895Z,7.43
2019-02-10T12:17:15.166Z,7.36
2019-02-10T12:19:45.804Z,7.40
2019-02-10T12:22:16.961Z,7.47
2019-02-10T12:24:49.833Z,7.51
2019-02-10T12:27:20.982Z,7.52
2019-02-10T12:29:52.322Z,7.18
2019-02-10T12:32:23.724Z,7.02
2019-02-10T12:34:54.167Z,6.92
2019-02-10T12:37:32.193Z,6.94
2019-02-10T12:39:59.837Z,6.88
2019-02-10T12:42:31.729Z,6.83
2019-02-10T12:45:02.977Z,6.48
2019-02-10T12:47:33.349Z,6.66
2019-02-10T12:50:05.056Z,6.54
2019-02-10T12:52:35.370Z,6.67
2019-02-10T12:55:06.215Z,6.62
2019-02-10T12:57:37.055Z,6.64
2019-02-10T13:00:09.846Z,6.70
2019-02-10T13:02:40.470Z,6.73
2019-02-10T13:05:12.846Z,6.85
2019-02-10T13:07:44.411Z,6.90
2019-02-10T13:10:17.410Z,6.96
2019-02-10T13:12:47.885Z,7.05
2019-02-10T13:15:19.679Z,7.05
2019-02-10T13:17:50.992Z,7.11
2019-02-10T13:20:19.102Z,7.07
2019-02-10T13:22:50.750Z,7.12
2019-02-10T13:25:27.639Z,7.13
2019-02-10T13:27:58.767Z,7.13
2019-02-10T13:30:30.483Z,6.87
2019-02-10T13:33:02.168Z,6.89
2019-02-10T13:35:35.644Z,6.97
2019-02-10T13:38:07.952Z,6.96
2019-02-10T13:40:35.999Z,6.99
2019-02-10T13:43:05.238Z,7.05
2019-02-10T13:45:36.859Z,7.07
2019-02-10T13:48:08.147Z,7.01
2019-02-10T13:50:39.339Z,6.89
2019-02-10T13:53:10.597Z,6.91
2019-02-10T13:55:41.292Z,6.75
2019-02-10T13:58:12.127Z,6.85
2019-02-10T14:00:43.229Z,6.85
2019-02-10T14:03:13.805Z,6.80
2019-02-10T14:05:46.144Z,6.69
2019-02-10T14:08:18.226Z,6.64
2019-02-10T14:10:48.598Z,6.67
2019-02-10T14:13:19.453Z,6.69
2019-02-10T14:15:50.775Z,6.71
2019-02-10T14:18:21.708Z,6.73
2019-02-10T14:20:52.842Z,6.81
2019-02-10T14:23:24.085Z,6.73
2019-02-10T14:25:55.056Z,6.63
2019-02-10T14:28:27.405Z,6.56
2019-02-10T14:30:58.385Z,6.62
2019-02-10T14:33:38.531Z,6.65
2019-02-10T14:36:05.288Z,6.67
2019-02-10T14:38:36.546Z,6.58
2019-02-10T14:41:07.896Z,6.47
2019-02-10T14:43:39.412Z,6.52
2019-02-10T14:46:11.406Z,6.43
2019-02-10T14:48:42.386Z,6.40
2019-02-10T14:51:14.132Z,6.44
2019-02-10T14:53:44.866Z,6.46
2019-02-10T14:56:15.876Z,6.45
2019-02-10T14:58:47.175Z,6.39
2019-02-10T15:03:49.010Z,6.26
2019-02-10T15:06:22.854Z,6.22
2019-02-10T15:08:53.580Z,6.18
2019-02-10T15:11:26.361Z,6.16
2019-02-10T15:13:57.881Z,6.10
2019-02-10T15:16:31.164Z,6.09
2019-02-10T15:21:33.681Z,5.99
2019-02-10T15:24:05.412Z,5.93
2019-02-10T15:26:37.936Z,5.86
2019-02-10T15:29:10.073Z,5.76
2019-02-10T15:31:40.695Z,5.62
2019-02-10T15:34:12.047Z,5.60
2019-02-10T15:36:43.166Z,5.57
2019-02-10T15:39:15.983Z,5.54
2019-02-10T15:41:47.201Z,5.50
2019-02-10T15:44:18.474Z,5.42
2019-02-10T15:46:49.582Z,5.39
2019-02-10T15:49:40.379Z,5.33
2019-02-10T15:52:12.619Z,5.17
2019-02-10T15:54:43.783Z,5.07
2019-02-10T15:57:14.977Z,5.01
2019-02-10T15:59:48.026Z,4.95
2019-02-10T16:02:19.303Z,4.90
2019-02-10T16:04:50.252Z,4.81
2019-02-10T16:07:22.548Z,4.73
2019-02-10T16:09:54.255Z,4.67
2019-02-10T16:12:25.935Z,4.61
2019-02-10T16:14:56.577Z,4.59
2019-02-10T16:17:28.003Z,4.57
2019-02-10T16:19:58.896Z,4.52
2019-02-10T16:22:29.757Z,4.50
2019-02-10T16:25:01.577Z,4.45
2019-02-10T16:27:32.133Z,4.45
2019-02-10T16:30:03.513Z,4.43
2019-02-10T16:32:34.566Z,4.39
2019-02-10T16:35:05.353Z,4.38
2019-02-10T16:37:36.055Z,4.35
2019-02-10T16:40:08.057Z,4.30
2019-02-10T16:42:40.584Z,4.26
2019-02-10T16:45:11.849Z,4.25
2019-02-10T16:47:42.631Z,4.22
2019-02-10T16:50:13.937Z,4.23
2019-02-10T16:52:44.810Z,4.21
2019-02-10T16:55:15.803Z,4.19
2019-02-10T16:57:46.482Z,4.15
2019-02-10T17:00:16.972Z,4.14
2019-02-10T17:02:47.660Z,4.12
2019-02-10T17:05:18.519Z,4.06
2019-02-10T17:07:51.822Z,4.00
2019-02-10T17:10:22.554Z,4.00
2019-02-10T17:12:53.309Z,4.01
2019-02-10T17:15:23.997Z,4.01
2019-02-10T17:17:54.758Z,3.94
2019-02-10T17:20:27.333Z,3.95
2019-02-10T17:22:58.311Z,3.97
2019-02-10T17:25:29.857Z,3.95
2019-02-10T17:28:02.053Z,3.95
2019-02-10T17:30:32.769Z,3.91
2019-02-10T17:33:04.383Z,3.84
2019-02-10T17:35:35.134Z,3.84
2019-02-10T17:38:06.403Z,3.84
2019-02-10T17:40:40.162Z,3.81
2019-02-10T17:43:11.713Z,3.78
2019-02-10T17:45:42.572Z,3.72
2019-02-10T17:48:13.309Z,3.72
2019-02-10T17:50:44.080Z,3.76
2019-02-10T17:53:14.755Z,3.77
2019-02-10T17:55:45.636Z,3.78
2019-02-10T17:58:16.387Z,3.79
2019-02-10T18:00:49.073Z,3.83
2019-02-10T18:03:21.278Z,3.85
2019-02-10T18:05:52.101Z,3.88
2019-02-10T18:08:23.722Z,3.96
2019-02-10T18:10:54.859Z,3.97
2019-02-10T18:13:25.751Z,4.04
2019-02-10T18:16:19.550Z,4.07
2019-02-10T18:19:01.994Z,4.09
2019-02-10T18:21:40.767Z,4.13
2019-02-10T18:24:48.785Z,4.10
2019-02-10T18:27:37.541Z,4.12
2019-02-10T18:30:32.346Z,4.13
2019-02-10T18:33:32.495Z,4.21
2019-02-10T18:36:25.006Z,4.28
2019-02-10T18:39:27.264Z,4.38
2019-02-10T18:42:08.314Z,4.41
2019-02-10T18:44:55.482Z,4.46
2019-02-10T18:47:46.185Z,4.47
2019-02-10T18:50:35.259Z,4.48
2019-02-10T18:53:24.754Z,4.51
2019-02-10T18:56:06.519Z,4.50
2019-02-10T18:58:56.001Z,4.46
2019-02-10T19:01:38.601Z,4.52
2019-02-10T19:04:40.808Z,4.55
2019-02-10T19:07:31.622Z,4.55
2019-02-10T19:10:20.962Z,4.48
2019-02-10T19:13:07.568Z,4.44
2019-02-10T19:15:55.639Z,4.41
2019-02-10T19:18:41.388Z,4.45
2019-02-10T19:21:39.990Z,4.39
2019-02-10T19:24:49.003Z,4.40
2019-02-10T19:27:27.901Z,4.43
2019-02-10T19:30:17.107Z,4.41
2019-02-10T19:33:06.594Z,4.36
2019-02-10T19:35:55.751Z,4.31
2019-02-10T19:38:41.446Z,4.25
2019-02-10T19:41:22.313Z,4.23
2019-02-10T19:44:10.858Z,4.19
2019-02-10T19:46:59.099Z,4.14
2019-02-10T19:49:46.849Z,4.09
2019-02-10T19:52:35.506Z,4.04
2019-02-10T19:55:24.070Z,4.01
2019-02-10T19:58:29.513Z,3.94
2019-02-10T20:01:17.726Z,3.81
2019-02-10T20:04:26.862Z,3.84
2019-02-10T20:07:23.521Z,3.84
2019-02-10T20:10:04.228Z,3.82
2019-02-10T20:12:46.502Z,3.90
2019-02-10T20:15:23.016Z,3.89
2019-02-10T20:18:12.644Z,3.90
2019-02-10T20:21:08.577Z,3.93
2019-02-10T20:24:11.477Z,4.01
2019-02-10T20:27:06.872Z,4.07
2019-02-10T20:29:48.479Z,4.06
2019-02-10T20:32:42.861Z,4.14
2019-02-10T20:35:41.141Z,4.19
2019-02-10T20:38:39.618Z,4.18
2019-02-10T20:41:37.910Z,4.19
2019-02-10T20:44:28.399Z,4.28
2019-02-10T20:47:27.114Z,4.29
2019-02-10T20:50:28.758Z,4.35
2019-02-10T20:53:18.309Z,4.34
2019-02-10T20:56:02.055Z,4.32
2019-02-10T20:58:44.350Z,4.36
2019-02-10T21:01:30.791Z,4.34
2019-02-10T21:04:08.660Z,4.36
2019-02-10T21:06:55.170Z,4.33
2019-02-10T21:09:54.159Z,4.33
2019-02-10T21:12:43.264Z,4.32
2019-02-10T21:15:48.726Z,4.35
2019-02-10T21:18:37.630Z,4.35
2019-02-10T21:21:27.529Z,4.41
2019-02-10T21:24:10.864Z,4.33
2019-02-10T21:26:59.603Z,4.40
2019-02-10T21:32:34.149Z,4.47
2019-02-10T21:35:23.724Z,4.51
2019-02-10T21:38:19.049Z,4.52
2019-02-10T21:41:08.510Z,4.53
2019-02-10T21:44:01.377Z,4.49
2019-02-10T21:46:59.139Z,4.63
2019-02-10T21:49:32.214Z,4.69
2019-02-10T21:52:04.882Z,4.71
2019-02-10T21:54:35.865Z,4.74
2019-02-10T21:57:06.422Z,4.71
2019-02-10T21:59:37.059Z,4.72
2019-02-10T22:02:07.716Z,4.74
2019-02-10T22:04:38.842Z,4.72
2019-02-10T22:07:09.469Z,4.76
2019-02-10T22:09:41.244Z,4.85
2019-02-10T22:12:12.432Z,4.83
2019-02-10T22:14:43.127Z,4.83
2019-02-10T22:17:13.816Z,4.86
2019-02-10T22:19:44.659Z,4.85
2019-02-10T22:22:15.639Z,4.80
2019-02-10T22:24:46.263Z,4.69
2019-02-10T22:27:16.868Z,4.67
2019-02-10T22:29:47.469Z,4.66
2019-02-10T22:32:19.655Z,4.66
2019-02-10T22:34:50.524Z,4.62
2019-02-10T22:37:21.171Z,4.53
2019-02-10T22:39:51.782Z,4.47
2019-02-10T22:42:22.618Z,4.37
2019-02-10T22:44:53.237Z,4.26
2019-02-10T22:47:23.908Z,4.19
2019-02-10T22:49:54.560Z,4.10
2019-02-10T22:52:27.976Z,4.01
2019-02-10T22:54:58.678Z,3.93
2019-02-10T22:57:29.629Z,3.86
2019-02-10T23:00:01.326Z,3.81
2019-02-10T23:02:32.479Z,3.72
2019-02-10T23:05:05.543Z,3.70
2019-02-10T23:07:36.355Z,3.66
2019-02-10T23:10:07.235Z,3.62
2019-02-10T23:12:38.039Z,3.57
2019-02-10T23:15:10.245Z,3.55
2019-02-10T23:17:40.829Z,3.49
2019-02-10T23:20:11.750Z,3.42
2019-02-10T23:22:42.381Z,3.36
2019-02-10T23:25:12.933Z,3.33
2019-02-10T23:27:43.480Z,3.29
2019-02-10T23:30:14.440Z,3.33
2019-02-10T23:32:45.108Z,3.45
2019-02-10T23:35:15.916Z,3.64
2019-02-10T23:37:46.875Z,3.92
2019-02-10T23:40:17.606Z,4.08
2019-02-10T23:42:48.249Z,4.26
2019-02-10T23:45:18.807Z,4.48
2019-02-10T23:47:49.555Z,4.58
2019-02-10T23:50:20.878Z,4.68
2019-02-10T23:52:51.706Z,4.78
2019-02-10T23:55:22.268Z,4.88
2019-02-10T23:57:52.920Z,4.95
